CheckWX is a tool to help pilots better visualize weather data.  It is not intended as a substitute for an official pre-flight weather briefing.

08:34:12 UTC

KHNB METAR
Huntingburg Airport
Huntingburg, Indiana, USA
Current

38 mins ago

KHNB 220756Z AUTO 04006KT 10SM CLR 04/00 A3029 RMK AO2 SLP261 T00390000
Observed
Feb-22 @ 07:56 UTC
Wind
  • 040° at 6 KTS
Visibility
10 SM
Flight Rules
VFR
Cloud Levels
  • Clear skies
Temperature
C / 39°F
Dewpoint
C / 32°F
Humidity
75%
Altimeter
30.29" Hg
Pressure
1026.1 hPa
Previous

2 hours ago

KHNB 220656Z AUTO 02006KT 10SM CLR 04/M01 A3029 RMK AO2 SLP260 T00441006
Observed
Feb-22 @ 06:56 UTC
Wind
  • 020° at 6 KTS
Visibility
10 SM
Flight Rules
VFR
Cloud Levels
  • Clear skies
Temperature
C / 39°F
Dewpoint
-1°C / 30°F
Humidity
70%
Altimeter
30.29" Hg
Pressure
1026 hPa
Previous

3 hours ago

KHNB 220556Z AUTO 01004KT 10SM OVC110 04/00 A3027 RMK AO2 SLP256 T00440000 10056 20039 53001
Observed
Feb-22 @ 05:56 UTC
Wind
  • 010° at 4 KTS
Visibility
10 SM
Flight Rules
VFR
Cloud Levels
  • Overcast at 11,000' AGL
Temperature
C / 39°F
Dewpoint
C / 32°F
Humidity
75%
Altimeter
30.27" Hg
Pressure
1025.6 hPa